createdAt,value
2022-12-05T00:00:25.482Z,3.47
2022-12-05T00:03:11.835Z,3.49
2022-12-05T00:05:44.464Z,3.50
2022-12-05T00:08:16.872Z,3.51
2022-12-05T00:10:49.246Z,3.50
2022-12-05T00:13:21.542Z,3.49
2022-12-05T00:15:53.794Z,3.47
2022-12-05T00:18:26.055Z,3.44
2022-12-05T00:20:58.530Z,3.42
2022-12-05T00:23:31.147Z,3.41
2022-12-05T00:26:07.357Z,3.42
2022-12-05T00:28:39.916Z,3.42
2022-12-05T00:31:16.468Z,3.43
2022-12-05T00:33:49.355Z,3.41
2022-12-05T00:36:23.774Z,3.40
2022-12-05T00:38:56.542Z,3.39
2022-12-05T00:41:30.348Z,3.37
2022-12-05T00:44:03.550Z,3.36
2022-12-05T00:46:37.252Z,3.33
2022-12-05T00:49:12.035Z,3.31
2022-12-05T00:51:45.448Z,3.29
2022-12-05T00:54:19.098Z,3.29
2022-12-05T00:56:56.300Z,3.30
2022-12-05T00:59:28.539Z,3.31
2022-12-05T01:02:01.152Z,3.34
2022-12-05T01:04:33.497Z,3.36
2022-12-05T01:07:05.861Z,3.37
2022-12-05T01:09:38.231Z,3.38
2022-12-05T01:12:11.304Z,3.41
2022-12-05T01:14:43.530Z,3.43
2022-12-05T01:17:15.770Z,3.42
2022-12-05T01:19:48.032Z,3.42
2022-12-05T01:22:20.539Z,3.39
2022-12-05T01:24:52.829Z,3.38
2022-12-05T01:27:25.087Z,3.40
2022-12-05T01:29:57.534Z,3.41
2022-12-05T01:32:29.973Z,3.42
2022-12-05T01:35:02.516Z,3.43
2022-12-05T01:37:34.887Z,3.42
2022-12-05T01:40:09.202Z,3.43
2022-12-05T01:42:41.893Z,3.41
2022-12-05T01:45:19.544Z,3.38
2022-12-05T01:47:51.808Z,3.34
2022-12-05T01:50:26.501Z,3.33
2022-12-05T01:52:59.603Z,3.32
2022-12-05T01:55:32.191Z,3.30
2022-12-05T01:58:06.937Z,3.32
2022-12-05T02:00:40.512Z,3.35
2022-12-05T02:03:19.549Z,3.37
2022-12-05T02:05:55.599Z,3.39
2022-12-05T02:08:30.932Z,3.42
2022-12-05T02:11:03.367Z,3.38
2022-12-05T02:13:54.321Z,3.39
2022-12-05T02:16:40.127Z,3.39
2022-12-05T02:19:38.800Z,3.36
2022-12-05T02:22:35.670Z,3.33
2022-12-05T02:25:22.725Z,3.30
2022-12-05T02:28:11.035Z,3.28
2022-12-05T02:30:51.087Z,3.28
2022-12-05T02:33:31.942Z,3.26
2022-12-05T02:36:08.915Z,3.24
2022-12-05T02:38:47.627Z,3.21
2022-12-05T02:41:25.648Z,3.18
2022-12-05T02:44:02.003Z,3.16
2022-12-05T02:46:38.039Z,3.16
2022-12-05T02:49:10.127Z,3.15
2022-12-05T02:51:47.045Z,3.12
2022-12-05T02:54:25.198Z,3.10
2022-12-05T02:56:59.971Z,3.08
2022-12-05T02:59:32.539Z,3.06
2022-12-05T03:02:04.848Z,3.08
2022-12-05T03:04:37.432Z,3.10
2022-12-05T03:07:13.497Z,3.09
2022-12-05T03:09:47.254Z,3.07
2022-12-05T03:12:23.091Z,3.04
2022-12-05T03:15:00.062Z,3.03
2022-12-05T03:17:37.348Z,2.98
2022-12-05T03:20:15.169Z,2.97
2022-12-05T03:22:51.822Z,2.97
2022-12-05T03:25:30.343Z,2.95
2022-12-05T03:28:08.678Z,2.95
2022-12-05T03:30:43.178Z,2.91
2022-12-05T03:33:19.663Z,2.91
2022-12-05T03:36:03.583Z,2.91
2022-12-05T03:38:41.305Z,2.92
2022-12-05T03:41:23.489Z,2.92
2022-12-05T03:44:02.718Z,2.94
2022-12-05T03:46:39.686Z,2.94
2022-12-05T03:49:17.423Z,2.92
2022-12-05T03:51:56.532Z,2.93
2022-12-05T03:54:33.848Z,2.91
2022-12-05T03:57:10.590Z,2.88
2022-12-05T03:59:46.891Z,2.86
2022-12-05T04:02:25.106Z,2.85
2022-12-05T04:05:03.277Z,2.83
2022-12-05T04:07:39.069Z,2.79
2022-12-05T04:10:14.090Z,2.77
2022-12-05T04:12:48.243Z,2.76
2022-12-05T04:15:25.458Z,2.77
2022-12-05T04:18:01.528Z,2.78
2022-12-05T04:21:04.447Z,2.78
2022-12-05T04:23:37.171Z,2.78
2022-12-05T04:26:18.316Z,2.78
2022-12-05T04:28:58.225Z,2.81
2022-12-05T04:31:37.006Z,2.84
2022-12-05T04:34:14.024Z,2.86
2022-12-05T04:36:51.634Z,2.87
2022-12-05T04:39:28.667Z,2.89
2022-12-05T04:42:05.572Z,2.91
2022-12-05T04:44:41.675Z,2.92
2022-12-05T04:47:16.028Z,2.87
2022-12-05T04:49:53.465Z,2.88
2022-12-05T04:52:28.273Z,2.84
2022-12-05T04:55:07.326Z,2.84
2022-12-05T04:57:46.246Z,2.84
2022-12-05T05:00:19.810Z,2.87
2022-12-05T05:02:57.481Z,2.82
2022-12-05T05:05:32.368Z,2.82
2022-12-05T05:08:04.920Z,2.83
2022-12-05T05:10:44.584Z,2.86
2022-12-05T05:13:16.854Z,2.89
2022-12-05T05:15:49.243Z,2.91
2022-12-05T05:18:21.448Z,2.91
2022-12-05T05:20:53.741Z,2.90
2022-12-05T05:23:26.097Z,2.93
2022-12-05T05:25:58.871Z,2.95
2022-12-05T05:28:31.207Z,2.96
2022-12-05T05:31:07.011Z,2.96
2022-12-05T05:33:39.656Z,2.96
2022-12-05T05:36:14.770Z,2.92
2022-12-05T05:38:49.027Z,2.88
2022-12-05T05:41:23.332Z,2.89
2022-12-05T05:43:56.390Z,2.93
2022-12-05T05:46:31.189Z,2.96
2022-12-05T05:49:04.346Z,2.97
2022-12-05T05:51:36.653Z,2.94
2022-12-05T05:54:08.918Z,2.95
2022-12-05T05:56:42.607Z,2.95
2022-12-05T05:59:14.820Z,2.91
2022-12-05T06:01:47.227Z,2.91
2022-12-05T06:04:19.518Z,2.94
2022-12-05T06:06:51.800Z,2.95
2022-12-05T06:09:24.019Z,2.91
2022-12-05T06:11:56.283Z,2.93
2022-12-05T06:14:28.598Z,2.93
2022-12-05T06:17:00.837Z,2.93
2022-12-05T06:19:33.238Z,2.95
2022-12-05T06:22:05.550Z,2.95
2022-12-05T06:24:39.379Z,2.94
2022-12-05T06:27:11.721Z,2.93
2022-12-05T06:29:44.185Z,2.93
2022-12-05T06:32:16.537Z,2.91
2022-12-05T06:34:48.740Z,2.90
2022-12-05T06:37:21.013Z,2.93
2022-12-05T06:39:53.816Z,2.95
2022-12-05T06:42:26.054Z,2.96
2022-12-05T06:44:58.352Z,2.97
2022-12-05T06:47:30.716Z,2.99
2022-12-05T06:50:02.942Z,3.01
2022-12-05T06:52:35.324Z,3.01
2022-12-05T06:55:09.065Z,3.02
2022-12-05T06:57:41.318Z,3.03
2022-12-05T07:00:33.723Z,3.04
2022-12-05T07:03:06.027Z,3.01
2022-12-05T07:05:38.360Z,3.00
2022-12-05T07:08:10.700Z,3.00
2022-12-05T07:10:43.147Z,2.97
2022-12-05T07:13:15.877Z,2.96
2022-12-05T07:15:49.810Z,2.93
2022-12-05T07:18:22.095Z,2.92
2022-12-05T07:21:11.699Z,2.94
2022-12-05T07:23:46.208Z,2.96
2022-12-05T07:26:20.982Z,3.01
2022-12-05T07:28:57.414Z,3.08
2022-12-05T07:31:30.075Z,3.12
2022-12-05T07:34:02.628Z,3.17
2022-12-05T07:36:34.907Z,3.19
2022-12-05T07:39:07.374Z,3.22
2022-12-05T07:41:40.354Z,3.27
2022-12-05T07:44:14.979Z,3.30
2022-12-05T07:46:47.287Z,3.35
2022-12-05T07:49:19.562Z,3.44
2022-12-05T07:51:51.911Z,3.52
2022-12-05T07:54:24.294Z,3.56
2022-12-05T07:56:56.640Z,3.58
2022-12-05T07:59:28.905Z,3.63
2022-12-05T08:02:01.285Z,3.68
2022-12-05T08:04:33.862Z,3.72
2022-12-05T08:07:06.086Z,3.76
2022-12-05T08:09:38.347Z,3.79
2022-12-05T08:12:10.891Z,3.82
2022-12-05T08:14:43.234Z,3.85
2022-12-05T08:17:15.697Z,3.87
2022-12-05T08:19:47.958Z,3.93
2022-12-05T08:22:20.344Z,3.97
2022-12-05T08:24:56.378Z,4.00
2022-12-05T08:27:28.933Z,4.00
2022-12-05T08:30:01.272Z,4.01
2022-12-05T08:32:33.718Z,4.00
2022-12-05T08:35:06.657Z,4.02
2022-12-05T08:37:38.927Z,4.04
2022-12-05T08:40:13.260Z,4.05
2022-12-05T08:42:46.059Z,4.07
2022-12-05T08:45:18.494Z,4.09
2022-12-05T08:47:50.740Z,4.10
2022-12-05T08:50:23.151Z,4.10
2022-12-05T08:52:55.524Z,4.10
2022-12-05T08:55:27.799Z,4.09
2022-12-05T08:58:00.062Z,4.09
2022-12-05T09:00:32.659Z,4.09
2022-12-05T09:03:05.036Z,4.11
2022-12-05T09:05:37.811Z,4.12
2022-12-05T09:08:10.218Z,4.12
2022-12-05T09:10:42.641Z,4.11
2022-12-05T09:13:15.439Z,4.16
2022-12-05T09:15:47.754Z,4.19
2022-12-05T09:18:20.021Z,4.21
2022-12-05T09:20:52.465Z,4.21
2022-12-05T09:23:24.715Z,4.19
2022-12-05T09:25:58.331Z,4.22
2022-12-05T09:28:31.090Z,4.24
2022-12-05T09:31:05.716Z,4.27
2022-12-05T09:33:40.043Z,4.29
2022-12-05T09:36:16.997Z,4.32
2022-12-05T09:38:50.097Z,4.35
2022-12-05T09:41:53.307Z,4.38
2022-12-05T09:44:38.360Z,4.38
2022-12-05T09:47:19.142Z,4.39
2022-12-05T09:50:01.657Z,4.43
2022-12-05T09:52:38.894Z,4.46
2022-12-05T09:55:16.102Z,4.49
2022-12-05T09:57:53.772Z,4.52
2022-12-05T10:00:27.727Z,4.54
2022-12-05T10:03:13.618Z,4.54
2022-12-05T10:05:51.751Z,4.59
2022-12-05T10:08:27.663Z,4.60
2022-12-05T10:11:02.012Z,4.61
2022-12-05T10:13:46.691Z,4.64
2022-12-05T10:16:26.649Z,4.66
2022-12-05T10:19:04.307Z,4.69
2022-12-05T10:21:46.295Z,4.74
2022-12-05T10:24:23.756Z,4.78
2022-12-05T10:27:01.890Z,4.80
2022-12-05T10:29:39.399Z,4.83
2022-12-05T10:32:21.413Z,4.86
2022-12-05T10:34:56.529Z,4.88
2022-12-05T10:37:30.967Z,4.89
2022-12-05T10:40:03.295Z,4.88
2022-12-05T10:42:37.913Z,4.88
2022-12-05T10:45:18.310Z,4.89
2022-12-05T10:47:51.501Z,4.93
2022-12-05T10:50:30.289Z,4.93
2022-12-05T10:53:06.277Z,4.92
2022-12-05T10:55:54.748Z,4.90
2022-12-05T10:58:34.603Z,4.87
2022-12-05T11:01:15.980Z,4.85
2022-12-05T11:03:57.143Z,4.87
2022-12-05T11:06:31.944Z,4.88
2022-12-05T11:09:16.013Z,4.89
2022-12-05T11:12:02.675Z,4.91
2022-12-05T11:14:36.437Z,4.94
2022-12-05T11:17:23.737Z,4.96
2022-12-05T11:19:56.002Z,4.97
2022-12-05T11:22:36.575Z,5.00
2022-12-05T11:25:30.555Z,5.00
2022-12-05T11:28:20.792Z,4.99
2022-12-05T11:31:00.272Z,5.00
2022-12-05T11:33:34.801Z,4.99
2022-12-05T11:36:21.077Z,4.98
2022-12-05T11:38:54.008Z,4.97
2022-12-05T11:41:58.941Z,5.00
2022-12-05T11:45:04.390Z,5.01
2022-12-05T11:47:57.904Z,5.00
2022-12-05T11:50:43.232Z,4.99
2022-12-05T11:53:33.433Z,4.98
2022-12-05T11:56:19.029Z,4.98
2022-12-05T11:59:03.619Z,5.00
2022-12-05T12:01:51.917Z,5.00
2022-12-05T12:04:45.896Z,5.00
2022-12-05T12:07:36.536Z,4.99
2022-12-05T12:10:22.376Z,4.96
2022-12-05T12:13:08.915Z,4.95
2022-12-05T12:15:57.367Z,4.98
2022-12-05T12:18:54.538Z,5.00
2022-12-05T12:21:38.851Z,5.01
2022-12-05T12:24:18.478Z,5.03
2022-12-05T12:27:03.642Z,5.05
2022-12-05T12:29:49.914Z,5.07
2022-12-05T12:32:27.654Z,5.04
2022-12-05T12:35:26.638Z,5.02
2022-12-05T12:38:19.170Z,5.06
2022-12-05T12:40:54.699Z,5.07
2022-12-05T12:43:53.547Z,5.09
2022-12-05T12:46:44.435Z,5.11
2022-12-05T12:49:30.825Z,5.15
2022-12-05T12:52:03.680Z,5.15
2022-12-05T12:55:04.920Z,5.11
2022-12-05T12:57:56.448Z,5.11
2022-12-05T13:00:44.066Z,5.14
2022-12-05T13:03:22.869Z,5.16
2022-12-05T13:05:59.731Z,5.17
2022-12-05T13:08:37.200Z,5.19
2022-12-05T13:11:12.846Z,5.20
2022-12-05T13:13:47.856Z,5.21
2022-12-05T13:16:28.308Z,5.22
2022-12-05T13:19:02.286Z,5.23
2022-12-05T13:21:34.929Z,5.23
2022-12-05T13:24:12.755Z,5.22
2022-12-05T13:26:52.448Z,5.20
2022-12-05T13:29:30.898Z,5.20
2022-12-05T13:32:05.560Z,5.17
2022-12-05T13:34:47.174Z,5.17
2022-12-05T13:37:43.521Z,5.17
2022-12-05T13:40:54.709Z,5.16
2022-12-05T13:43:30.283Z,5.17
2022-12-05T13:46:08.158Z,5.18
2022-12-05T13:48:45.565Z,5.18
2022-12-05T13:51:32.270Z,5.16
2022-12-05T13:54:12.663Z,5.14
2022-12-05T13:56:54.063Z,5.12
2022-12-05T14:00:01.428Z,5.12
2022-12-05T14:02:55.402Z,5.10
2022-12-05T14:05:56.626Z,5.09
2022-12-05T14:09:03.943Z,5.11
2022-12-05T14:11:34.567Z,5.10
2022-12-05T14:14:09.651Z,5.07
2022-12-05T14:16:46.515Z,5.06
2022-12-05T14:19:43.679Z,5.07
2022-12-05T14:22:37.812Z,5.06
2022-12-05T14:25:23.304Z,5.05
2022-12-05T14:28:02.992Z,5.07
2022-12-05T14:30:50.229Z,5.08
2022-12-05T14:33:25.260Z,5.08
2022-12-05T14:35:57.684Z,5.09
2022-12-05T14:38:33.429Z,5.11
2022-12-05T14:41:15.952Z,5.12
2022-12-05T14:43:56.811Z,5.07
2022-12-05T14:46:33.085Z,5.02
2022-12-05T14:49:50.306Z,4.98
2022-12-05T14:52:25.222Z,4.95
2022-12-05T14:55:03.548Z,4.94
2022-12-05T14:57:44.500Z,4.94
2022-12-05T15:00:24.023Z,4.94
2022-12-05T15:02:58.075Z,4.95
2022-12-05T15:05:34.537Z,4.97
2022-12-05T15:08:07.943Z,4.96
2022-12-05T15:10:41.726Z,4.94
2022-12-05T15:13:18.702Z,4.93
2022-12-05T15:16:02.006Z,4.93
2022-12-05T15:18:40.242Z,4.96
2022-12-05T15:21:19.475Z,4.97
2022-12-05T15:23:59.858Z,4.98
2022-12-05T15:26:46.957Z,5.00
2022-12-05T15:29:28.042Z,5.02
2022-12-05T15:32:02.963Z,5.04
2022-12-05T15:34:44.936Z,5.05
2022-12-05T15:37:20.440Z,5.05
2022-12-05T15:39:58.925Z,5.05
2022-12-05T15:42:33.055Z,5.02
2022-12-05T15:45:23.778Z,5.03
2022-12-05T15:47:59.422Z,5.05
2022-12-05T15:50:38.858Z,5.09
2022-12-05T15:53:18.804Z,5.12
2022-12-05T15:55:54.147Z,5.14
2022-12-05T15:58:31.551Z,5.14
2022-12-05T16:01:06.873Z,5.15
2022-12-05T16:03:46.187Z,5.13
2022-12-05T16:06:24.092Z,5.12
2022-12-05T16:08:57.249Z,5.12
2022-12-05T16:11:29.720Z,5.11
2022-12-05T16:14:06.748Z,5.10
2022-12-05T16:16:40.748Z,5.08
2022-12-05T16:19:19.471Z,5.07
2022-12-05T16:22:03.687Z,5.07
2022-12-05T16:24:43.212Z,5.05
2022-12-05T16:27:23.745Z,5.02
2022-12-05T16:33:05.058Z,5.06
2022-12-05T16:35:42.461Z,5.03
2022-12-05T16:38:19.565Z,4.99
2022-12-05T16:40:58.391Z,5.00
2022-12-05T16:43:45.092Z,4.98
2022-12-05T16:46:46.928Z,4.98
2022-12-05T16:49:45.616Z,4.97
2022-12-05T16:52:18.968Z,4.97
2022-12-05T16:54:52.397Z,4.96
2022-12-05T16:57:24.734Z,4.96
2022-12-05T16:59:58.403Z,4.95
2022-12-05T17:02:30.705Z,4.96
2022-12-05T17:05:13.715Z,4.98
2022-12-05T17:07:46.141Z,4.99
2022-12-05T17:10:18.653Z,5.00
2022-12-05T17:12:50.962Z,5.00
2022-12-05T17:15:23.478Z,5.00
2022-12-05T17:17:55.883Z,4.99
2022-12-05T17:20:28.151Z,5.01
2022-12-05T17:23:00.571Z,5.01
2022-12-05T17:25:36.471Z,5.00
2022-12-05T17:28:07.129Z,4.98
2022-12-05T17:30:40.047Z,4.95
2022-12-05T17:33:15.042Z,4.95
2022-12-05T17:35:47.316Z,4.94
2022-12-05T17:38:20.551Z,4.94
2022-12-05T17:40:52.935Z,4.92
2022-12-05T17:43:25.679Z,4.92
2022-12-05T17:46:00.672Z,4.92
2022-12-05T17:48:33.040Z,4.93
2022-12-05T17:51:10.285Z,4.95
2022-12-05T17:53:43.192Z,4.95
2022-12-05T17:56:16.233Z,4.95
2022-12-05T17:58:48.580Z,4.94
2022-12-05T18:01:24.512Z,4.93
2022-12-05T18:03:57.071Z,4.93
2022-12-05T18:06:29.446Z,4.91
2022-12-05T18:09:01.712Z,4.90
2022-12-05T18:11:34.074Z,4.89
2022-12-05T18:14:06.476Z,4.91
2022-12-05T18:16:38.901Z,4.89
2022-12-05T18:19:12.717Z,4.89
2022-12-05T18:21:47.950Z,4.88
2022-12-05T18:24:20.348Z,4.86
2022-12-05T18:26:52.838Z,4.86
2022-12-05T18:29:25.702Z,4.85
2022-12-05T18:31:58.081Z,4.84
2022-12-05T18:34:30.649Z,4.84
2022-12-05T18:37:03.066Z,4.85
2022-12-05T18:39:35.580Z,4.86
2022-12-05T18:42:14.795Z,4.85
2022-12-05T18:44:49.357Z,4.86
2022-12-05T18:47:21.647Z,4.88
2022-12-05T18:49:53.918Z,4.88
2022-12-05T18:52:26.375Z,4.88
2022-12-05T18:55:16.279Z,4.87
2022-12-05T18:57:49.522Z,4.86
2022-12-05T19:00:22.731Z,4.86
2022-12-05T19:02:54.998Z,4.86
2022-12-05T19:05:27.457Z,4.87
2022-12-05T19:08:00.072Z,4.87
2022-12-05T19:10:32.422Z,4.87
2022-12-05T19:13:04.785Z,4.85
2022-12-05T19:15:37.617Z,4.86
2022-12-05T19:18:09.915Z,4.87
2022-12-05T19:20:49.996Z,4.84
2022-12-05T19:23:22.264Z,4.81
2022-12-05T19:25:57.218Z,4.81
2022-12-05T19:28:29.770Z,4.79
2022-12-05T19:31:06.348Z,4.78
2022-12-05T19:33:40.067Z,4.78
2022-12-05T19:36:15.666Z,4.76
2022-12-05T19:38:49.809Z,4.75
2022-12-05T19:41:24.776Z,4.73
2022-12-05T19:44:00.346Z,4.72
2022-12-05T19:46:34.226Z,4.70
2022-12-05T19:49:09.021Z,4.69
2022-12-05T19:51:42.526Z,4.67
2022-12-05T19:54:17.958Z,4.66
2022-12-05T19:56:50.306Z,4.62
2022-12-05T19:59:22.676Z,4.64
2022-12-05T20:01:54.974Z,4.63
2022-12-05T20:04:27.567Z,4.61
2022-12-05T20:06:59.804Z,4.61
2022-12-05T20:09:32.042Z,4.61
2022-12-05T20:12:04.475Z,4.61
2022-12-05T20:14:36.839Z,4.61
2022-12-05T20:17:09.113Z,4.63
2022-12-05T20:19:42.147Z,4.64
2022-12-05T20:22:14.475Z,4.62
2022-12-05T20:24:47.014Z,4.59
2022-12-05T20:27:19.323Z,4.59
2022-12-05T20:29:51.734Z,4.62
2022-12-05T20:32:23.964Z,4.64
2022-12-05T20:34:58.008Z,4.65
2022-12-05T20:37:35.222Z,4.64
2022-12-05T20:40:10.003Z,4.62
2022-12-05T20:42:46.547Z,4.59
2022-12-05T20:45:19.419Z,4.60
2022-12-05T20:47:52.557Z,4.62
2022-12-05T20:50:24.820Z,4.62
2022-12-05T20:52:57.095Z,4.63
2022-12-05T20:55:29.331Z,4.65
2022-12-05T20:58:05.028Z,4.63
2022-12-05T21:00:38.200Z,4.63
2022-12-05T21:03:16.838Z,4.60
2022-12-05T21:05:49.574Z,4.58
2022-12-05T21:08:21.966Z,4.57
2022-12-05T21:10:55.439Z,4.59
2022-12-05T21:13:27.659Z,4.59
2022-12-05T21:16:04.545Z,4.60
2022-12-05T21:18:37.491Z,4.63
2022-12-05T21:21:13.483Z,4.67
2022-12-05T21:23:44.633Z,4.70
2022-12-05T21:26:20.670Z,4.72
2022-12-05T21:28:53.430Z,4.75
2022-12-05T21:31:27.636Z,4.77
2022-12-05T21:34:01.771Z,4.78
2022-12-05T21:36:36.795Z,4.81
2022-12-05T21:39:09.468Z,4.83
2022-12-05T21:41:41.707Z,4.84
2022-12-05T21:44:15.074Z,4.86
2022-12-05T21:46:48.613Z,4.86
2022-12-05T21:49:20.981Z,4.86
2022-12-05T21:51:53.214Z,4.85
2022-12-05T21:54:25.578Z,4.86
2022-12-05T21:56:57.798Z,4.85
2022-12-05T21:59:32.687Z,4.85
2022-12-05T22:02:05.047Z,4.86
2022-12-05T22:04:37.427Z,4.89
2022-12-05T22:07:09.684Z,4.91
2022-12-05T22:09:42.096Z,4.92
2022-12-05T22:12:14.627Z,4.92
2022-12-05T22:14:47.097Z,4.94
2022-12-05T22:17:19.442Z,4.94
2022-12-05T22:19:51.793Z,4.97
2022-12-05T22:22:24.307Z,4.97
2022-12-05T22:24:56.777Z,4.95
2022-12-05T22:27:30.644Z,4.94
2022-12-05T22:30:02.947Z,4.94
2022-12-05T22:32:35.232Z,4.95
2022-12-05T22:35:08.262Z,4.94
2022-12-05T22:37:40.582Z,4.96
2022-12-05T22:40:14.158Z,4.99
2022-12-05T22:42:46.404Z,5.00
2022-12-05T22:45:18.883Z,5.01
2022-12-05T22:47:51.148Z,5.02
2022-12-05T22:50:23.423Z,5.02
2022-12-05T22:52:55.630Z,5.03
2022-12-05T22:55:27.875Z,5.04
2022-12-05T22:58:00.123Z,5.03
2022-12-05T23:00:32.409Z,5.03
2022-12-05T23:03:05.214Z,5.01
2022-12-05T23:05:41.912Z,5.02
2022-12-05T23:08:14.396Z,5.03
2022-12-05T23:10:46.760Z,5.03
2022-12-05T23:13:19.032Z,5.03
2022-12-05T23:15:51.478Z,5.03
2022-12-05T23:18:24.158Z,5.03
2022-12-05T23:20:56.490Z,5.03
2022-12-05T23:23:28.708Z,5.03
2022-12-05T23:26:01.024Z,5.02
2022-12-05T23:28:33.279Z,5.01
2022-12-05T23:31:07.000Z,5.02
2022-12-05T23:33:40.482Z,5.00
2022-12-05T23:36:14.578Z,4.96
2022-12-05T23:38:46.860Z,4.94
2022-12-05T23:41:21.118Z,4.92
2022-12-05T23:43:54.718Z,4.93
2022-12-05T23:46:29.458Z,4.94
2022-12-05T23:49:02.009Z,4.95
2022-12-05T23:51:34.403Z,4.96
2022-12-05T23:54:07.952Z,4.98
2022-12-05T23:56:40.961Z,4.97
2022-12-05T23:59:13.203Z,4.94
